Time;durP1;ratioP1;P1;durP2;ratioP2;P2;SDS_P1;SDS_P2;PMS_P1;PMS_P2;Temp;Humidity;BMP_temperature;BMP_pressure;BME280_temperature;BME280_humidity;BME280_pressure;Samples;Min_cycle;Max_cycle;Signal;HPM_P1;HPM_P2
2022/09/06 00:01:40;;;;;;;3.67;3.22;;;20.40;88.80;;;;;;5034087;28;20370;-71
2022/09/06 00:04:06;;;;;;;3.35;2.63;;;20.30;89.00;;;;;;5009560;28;20124;-71
2022/09/06 00:06:31;;;;;;;4.90;3.20;;;20.30;89.60;;;;;;5018047;28;20069;-71
2022/09/06 00:08:57;;;;;;;4.45;3.35;;;20.20;90.00;;;;;;5028898;28;20037;-72
2022/09/06 00:11:23;;;;;;;7.85;3.28;;;20.10;90.30;;;;;;5035718;28;20089;-72
2022/09/06 00:13:48;;;;;;;3.20;2.88;;;20.10;90.50;;;;;;5013535;28;20038;-71
2022/09/06 00:16:19;;;;;;;5.43;2.80;;;20.00;90.60;;;;;;5017708;28;20037;-72
2022/09/06 00:18:45;;;;;;;5.78;3.20;;;20.00;90.50;;;;;;5031595;28;20781;-71
2022/09/06 00:21:21;;;;;;;4.53;2.83;;;20.00;90.50;;;;;;5010835;28;20188;-72
2022/09/06 00:23:47;;;;;;;3.85;3.13;;;20.10;90.50;;;;;;5027567;28;20041;-71
2022/09/06 00:26:14;;;;;;;4.22;3.08;;;20.10;91.00;;;;;;5007809;28;20386;-72
2022/09/06 00:28:39;;;;;;;4.88;3.28;;;20.00;90.70;;;;;;5013458;28;20030;-72
2022/09/06 00:31:14;;;;;;;5.47;2.90;;;20.00;90.90;;;;;;5015595;28;20054;-72
2022/09/06 00:33:40;;;;;;;4.88;2.90;;;19.90;91.10;;;;;;5010445;28;20096;-71
2022/09/06 00:36:06;;;;;;;6.78;3.05;;;19.80;91.40;;;;;;4998569;28;20265;-72
2022/09/06 00:38:32;;;;;;;5.25;3.08;;;19.80;91.70;;;;;;5013774;28;20048;-72
2022/09/06 00:40:58;;;;;;;4.07;2.65;;;19.70;92.10;;;;;;5014300;28;20113;-72
2022/09/06 00:43:24;;;;;;;3.58;3.20;;;19.70;92.30;;;;;;5031901;28;20081;-71
2022/09/06 00:45:51;;;;;;;3.70;3.08;;;19.60;92.40;;;;;;5020062;28;20049;-71
2022/09/06 00:48:17;;;;;;;5.80;3.65;;;19.60;92.70;;;;;;5009550;28;20674;-72
2022/09/06 00:50:45;;;;;;;5.40;3.35;;;19.60;92.90;;;;;;5013621;28;20049;-72
2022/09/06 00:53:11;;;;;;;5.55;3.47;;;19.50;93.10;;;;;;5010463;28;20050;-72
2022/09/06 00:55:37;;;;;;;6.07;3.10;;;19.50;93.60;;;;;;5016573;28;20216;-72
2022/09/06 00:58:03;;;;;;;5.45;3.25;;;19.40;94.00;;;;;;5016515;28;20086;-71
2022/09/06 01:00:29;;;;;;;5.70;3.10;;;19.30;94.50;;;;;;5014686;28;20048;-71
2022/09/06 01:02:54;;;;;;;5.70;3.10;;;19.20;95.10;;;;;;5010909;28;20040;-72
2022/09/06 01:05:25;;;;;;;5.57;3.25;;;19.20;95.60;;;;;;5012774;28;20050;-72
2022/09/06 01:07:57;;;;;;;4.55;3.47;;;19.20;95.70;;;;;;5028982;28;20041;-71
2022/09/06 01:10:47;;;;;;;3.72;3.42;;;19.20;95.90;;;;;;5007082;28;20045;-71
2022/09/06 01:13:33;;;;;;;4.38;3.25;;;19.10;96.10;;;;;;5012554;28;20056;-72
2022/09/06 01:16:04;;;;;;;5.85;3.55;;;19.20;96.60;;;;;;5005456;28;20844;-71
2022/09/06 01:18:45;;;;;;;3.97;3.22;;;19.10;97.00;;;;;;5009585;28;20045;-71
2022/09/06 01:21:31;;;;;;;5.32;3.30;;;19.10;97.00;;;;;;5012433;28;20037;-71
2022/09/06 01:24:24;;;;;;;3.92;3.53;;;19.00;97.40;;;;;;5009160;28;20117;-71
2022/09/06 01:26:56;;;;;;;4.07;3.50;;;19.00;97.70;;;;;;5023578;28;20109;-71
2022/09/06 01:29:38;;;;;;;4.43;3.70;;;19.00;98.30;;;;;;5009312;28;20049;-72
2022/09/06 01:32:13;;;;;;;4.65;3.67;;;19.00;98.90;;;;;;4998567;28;20050;-71
2022/09/06 01:34:49;;;;;;;4.32;3.92;;;18.90;99.40;;;;;;5005143;28;20037;-71
2022/09/06 01:37:19;;;;;;;5.30;3.83;;;18.90;99.60;;;;;;5015951;28;20045;-71
2022/09/06 01:39:45;;;;;;;6.97;3.35;;;18.90;99.80;;;;;;5004667;28;20069;-71
2022/09/06 01:42:21;;;;;;;5.82;3.85;;;18.90;99.90;;;;;;5004236;28;20077;-71
2022/09/06 01:45:08;;;;;;;5.25;4.00;;;19.00;99.40;;;;;;5011375;28;20437;-71
2022/09/06 01:47:39;;;;;;;5.10;3.60;;;19.00;98.80;;;;;;5026372;28;20168;-70
2022/09/06 01:50:36;;;;;;;4.60;3.70;;;19.00;98.50;;;;;;5008999;28;20085;-71
2022/09/06 01:53:14;;;;;;;5.35;3.65;;;19.00;97.80;;;;;;5006985;28;20084;-71
2022/09/06 01:55:54;;;;;;;5.22;3.58;;;19.00;97.90;;;;;;5005239;28;20042;-71
2022/09/06 01:58:43;;;;;;;7.20;3.65;;;19.00;97.80;;;;;;5014418;28;20053;-71
2022/09/06 02:01:19;;;;;;;4.40;3.35;;;19.00;97.70;;;;;;5021940;28;20038;-71
2022/09/06 02:04:11;;;;;;;5.10;3.80;;;19.00;97.60;;;;;;5011739;28;20092;-71
2022/09/06 02:06:53;;;;;;;5.55;3.72;;;19.10;97.80;;;;;;5009053;28;20112;-71
2022/09/06 02:09:23;;;;;;;6.35;3.95;;;19.00;98.00;;;;;;5013343;28;20354;-70
2022/09/06 02:11:54;;;;;;;4.97;4.32;;;19.00;98.70;;;;;;4992321;28;21307;-71
2022/09/06 02:14:26;;;;;;;4.18;3.63;;;19.00;99.00;;;;;;5010486;28;20597;-71
2022/09/06 02:16:53;;;;;;;4.53;3.83;;;19.00;99.30;;;;;;5005666;28;20615;-71
2022/09/06 02:20:06;;;;;;;4.55;4.00;;;19.00;99.50;;;;;;5013016;28;20096;-70
2022/09/06 02:22:37;;;;;;;4.53;3.80;;;19.00;99.30;;;;;;4949758;28;20185;-71
2022/09/06 02:25:08;;;;;;;4.60;3.58;;;18.90;99.30;;;;;;5014632;28;20152;-71
2022/09/06 02:27:33;;;;;;;5.65;3.80;;;18.90;99.10;;;;;;5001893;28;20481;-71
2022/09/06 02:30:01;;;;;;;5.50;4.05;;;18.90;98.90;;;;;;5008421;28;20045;-71
2022/09/06 02:32:29;;;;;;;6.43;4.30;;;18.90;98.80;;;;;;4989768;28;20512;-71
2022/09/06 02:34:56;;;;;;;5.05;3.70;;;18.90;98.70;;;;;;4995658;28;20057;-71
2022/09/06 02:37:26;;;;;;;4.28;3.85;;;18.90;98.60;;;;;;5024419;28;20266;-71
2022/09/06 02:39:54;;;;;;;7.15;4.50;;;18.90;98.30;;;;;;5030246;28;20041;-71
2022/09/06 02:42:21;;;;;;;5.18;3.75;;;19.00;98.20;;;;;;5011621;28;20042;-71
2022/09/06 02:44:48;;;;;;;6.63;4.30;;;18.90;98.20;;;;;;5014882;28;20033;-71
2022/09/06 02:47:14;;;;;;;5.60;4.20;;;18.90;98.10;;;;;;5016060;28;20497;-71
2022/09/06 02:49:39;;;;;;;5.82;3.70;;;18.90;98.10;;;;;;5014974;28;20592;-71
2022/09/06 02:52:05;;;;;;;7.20;4.43;;;18.90;98.00;;;;;;5031923;28;20046;-71
2022/09/06 02:54:31;;;;;;;4.88;3.30;;;18.90;97.90;;;;;;5016333;28;20041;-72
2022/09/06 02:56:57;;;;;;;6.72;4.03;;;18.90;98.00;;;;;;5028686;28;20107;-71
2022/09/06 02:59:22;;;;;;;5.70;4.18;;;18.90;98.00;;;;;;5017058;28;20049;-72
2022/09/06 03:01:48;;;;;;;6.18;4.22;;;18.90;98.10;;;;;;5013501;28;20038;-71
2022/09/06 03:04:14;;;;;;;5.72;4.13;;;18.90;98.20;;;;;;5014346;28;20060;-71
2022/09/06 03:06:39;;;;;;;5.78;4.20;;;18.80;98.20;;;;;;5014526;28;20072;-71
2022/09/06 03:09:05;;;;;;;5.70;3.90;;;18.80;98.20;;;;;;5034006;28;20087;-72
2022/09/06 03:11:31;;;;;;;7.20;4.25;;;18.80;98.40;;;;;;5012655;28;20038;-72
2022/09/06 03:13:56;;;;;;;5.50;4.72;;;18.80;98.50;;;;;;5021287;28;20049;-71
2022/09/06 03:16:22;;;;;;;5.63;4.75;;;18.80;98.60;;;;;;5008972;28;20038;-72
2022/09/06 03:18:48;;;;;;;6.32;4.65;;;18.70;98.90;;;;;;5017968;28;20041;-71
2022/09/06 03:21:14;;;;;;;5.57;4.70;;;18.70;98.80;;;;;;5019612;28;20041;-72
2022/09/06 03:23:40;;;;;;;5.15;4.45;;;18.70;99.00;;;;;;5014399;28;20049;-71
2022/09/06 03:26:06;;;;;;;6.00;5.00;;;18.70;99.20;;;;;;5034102;28;20090;-71
2022/09/06 03:28:33;;;;;;;5.22;4.38;;;18.60;99.50;;;;;;5014399;28;20106;-72
2022/09/06 03:30:58;;;;;;;7.13;4.78;;;18.60;99.50;;;;;;5032030;28;20069;-71
2022/09/06 03:33:24;;;;;;;6.00;4.78;;;18.60;99.50;;;;;;5011338;28;20056;-71
2022/09/06 03:35:55;;;;;;;5.55;4.80;;;18.60;99.60;;;;;;5043594;28;20112;-71
2022/09/06 03:38:22;;;;;;;7.55;4.80;;;18.60;99.70;;;;;;5005598;28;20409;-71
2022/09/06 03:40:48;;;;;;;6.15;4.78;;;18.60;99.70;;;;;;5026961;28;20038;-72
2022/09/06 03:43:15;;;;;;;9.70;4.63;;;18.60;99.60;;;;;;5010381;28;20133;-72
2022/09/06 03:45:46;;;;;;;6.28;4.97;;;18.60;99.60;;;;;;5035346;28;20038;-71
2022/09/06 03:48:12;;;;;;;6.50;4.35;;;18.60;99.90;;;;;;5015069;28;20061;-71
2022/09/06 03:50:38;;;;;;;5.45;4.68;;;18.60;99.90;;;;;;5015447;28;20052;-71
2022/09/06 03:53:03;;;;;;;5.65;5.07;;;18.60;99.90;;;;;;5013693;28;20053;-70
2022/09/06 03:55:29;;;;;;;5.35;4.85;;;18.60;99.90;;;;;;5013417;28;20077;-71
2022/09/06 03:57:55;;;;;;;6.07;5.03;;;18.60;99.90;;;;;;5029144;28;20049;-71
2022/09/06 04:00:20;;;;;;;6.32;4.78;;;18.60;99.90;;;;;;5005895;28;20105;-70
2022/09/06 04:02:46;;;;;;;10.82;5.10;;;18.60;99.90;;;;;;5023228;28;20152;-71
2022/09/06 04:05:12;;;;;;;7.93;5.10;;;18.60;99.90;;;;;;5006959;28;20037;-71
2022/09/06 04:07:38;;;;;;;6.63;5.70;;;18.60;99.90;;;;;;5029340;28;20037;-71
2022/09/06 04:10:04;;;;;;;7.78;5.38;;;18.60;99.90;;;;;;5010106;28;20046;-71
2022/09/06 04:12:29;;;;;;;7.00;6.13;;;18.60;99.90;;;;;;5009849;28;20049;-71
2022/09/06 04:14:55;;;;;;;8.70;5.63;;;18.60;99.90;;;;;;5008498;28;20030;-71
2022/09/06 04:17:21;;;;;;;8.25;5.90;;;18.60;99.90;;;;;;5008517;28;20390;-71
2022/09/06 04:19:46;;;;;;;8.13;6.18;;;18.50;99.90;;;;;;4991026;28;20068;-71
2022/09/06 04:22:12;;;;;;;8.48;6.32;;;18.50;99.90;;;;;;5011240;28;20046;-71
2022/09/06 04:24:38;;;;;;;6.72;6.10;;;18.40;99.90;;;;;;5026084;28;20078;-71
2022/09/06 04:27:04;;;;;;;7.15;6.43;;;18.40;99.90;;;;;;5013610;28;20084;-71
2022/09/06 04:29:29;;;;;;;6.82;6.22;;;18.40;99.90;;;;;;5008609;28;20191;-71
2022/09/06 04:31:55;;;;;;;7.65;6.93;;;18.40;99.90;;;;;;5013447;28;20137;-71
2022/09/06 04:34:21;;;;;;;7.88;7.10;;;18.30;99.90;;;;;;5014600;28;20563;-71
2022/09/06 04:36:46;;;;;;;10.20;6.80;;;18.30;99.90;;;;;;5019434;28;20067;-71
2022/09/06 04:39:12;;;;;;;9.40;6.50;;;18.30;99.90;;;;;;5015076;28;20124;-72
2022/09/06 04:41:44;;;;;;;7.57;6.95;;;18.20;99.90;;;;;;5005826;28;20390;-71
2022/09/06 04:44:10;;;;;;;9.63;7.97;;;18.20;99.90;;;;;;5023435;28;20061;-69
2022/09/06 04:46:35;;;;;;;7.80;7.03;;;18.20;99.90;;;;;;5017898;28;20053;-68
2022/09/06 04:49:01;;;;;;;8.38;7.68;;;18.10;99.90;;;;;;5031012;28;20049;-68
2022/09/06 04:51:27;;;;;;;7.97;7.38;;;18.10;99.90;;;;;;5008812;28;20077;-68
2022/09/06 04:53:53;;;;;;;8.25;7.55;;;18.10;99.90;;;;;;5009088;28;20103;-69
2022/09/06 04:56:21;;;;;;;9.48;8.00;;;18.00;99.90;;;;;;5011234;28;20057;-69
2022/09/06 04:58:48;;;;;;;8.45;7.68;;;18.00;99.90;;;;;;5029401;28;20053;-68
2022/09/06 05:01:14;;;;;;;9.48;8.40;;;18.00;99.90;;;;;;5029047;28;20060;-69
2022/09/06 05:03:40;;;;;;;8.82;8.02;;;17.90;99.90;;;;;;5010934;28;20152;-70
2022/09/06 05:06:22;;;;;;;9.88;8.98;;;17.90;99.90;;;;;;5029908;28;20132;-70
2022/09/06 05:08:49;;;;;;;9.50;8.52;;;17.90;99.90;;;;;;5030713;28;20077;-69
2022/09/06 05:11:15;;;;;;;10.10;9.20;;;17.90;99.90;;;;;;5018742;28;20037;-70
2022/09/06 05:13:41;;;;;;;10.63;9.63;;;17.80;99.90;;;;;;5028204;28;20038;-69
2022/09/06 05:16:08;;;;;;;11.57;10.38;;;17.80;99.90;;;;;;5005359;28;20080;-70
2022/09/06 05:18:34;;;;;;;12.02;10.70;;;17.80;99.90;;;;;;5028125;28;20048;-70
2022/09/06 05:21:00;;;;;;;11.07;9.35;;;17.80;99.90;;;;;;5024802;28;20041;-70
2022/09/06 05:23:26;;;;;;;11.93;10.30;;;17.70;99.90;;;;;;5008791;28;20040;-70
2022/09/06 05:25:52;;;;;;;10.55;9.27;;;17.70;99.90;;;;;;5013298;28;20046;-70
2022/09/06 05:28:18;;;;;;;12.70;11.35;;;17.60;99.90;;;;;;5011459;28;20073;-70
2022/09/06 05:30:44;;;;;;;10.80;9.80;;;17.60;99.90;;;;;;5029200;28;20466;-70
2022/09/06 05:33:12;;;;;;;12.18;11.13;;;17.50;99.90;;;;;;5001969;28;20096;-70
2022/09/06 05:35:38;;;;;;;16.80;15.20;;;17.50;99.90;;;;;;5017550;28;20068;-71
2022/09/06 05:38:03;;;;;;;11.45;10.30;;;17.50;99.90;;;;;;5015108;28;20041;-71
2022/09/06 05:40:29;;;;;;;11.68;10.30;;;17.40;99.90;;;;;;5030924;28;20038;-71
2022/09/06 05:42:55;;;;;;;10.88;9.98;;;17.40;99.90;;;;;;5008183;28;20045;-72
2022/09/06 05:45:21;;;;;;;12.13;11.02;;;17.30;99.90;;;;;;5031050;28;20057;-72
2022/09/06 05:47:47;;;;;;;11.13;10.07;;;17.30;99.90;;;;;;5028672;28;20077;-70
2022/09/06 05:50:12;;;;;;;11.10;10.02;;;17.30;99.90;;;;;;5017057;28;20057;-72
2022/09/06 05:52:38;;;;;;;13.88;10.65;;;17.20;99.90;;;;;;5037481;28;20041;-71
2022/09/06 05:55:06;;;;;;;13.23;10.05;;;17.20;99.90;;;;;;5023052;28;20045;-71
2022/09/06 05:57:31;;;;;;;11.60;10.50;;;17.20;99.90;;;;;;4996828;28;20048;-71
2022/09/06 05:59:57;;;;;;;14.35;11.57;;;17.20;99.90;;;;;;5009302;28;20489;-72
2022/09/06 06:02:23;;;;;;;14.23;12.77;;;17.20;99.90;;;;;;5016506;28;20041;-71
2022/09/06 06:04:50;;;;;;;14.27;12.73;;;17.20;99.90;;;;;;5053333;28;20041;-71
2022/09/06 06:07:16;;;;;;;12.45;11.13;;;17.20;99.90;;;;;;5022752;28;20049;-71
2022/09/06 06:09:42;;;;;;;11.07;10.07;;;17.20;99.90;;;;;;5031632;28;20029;-72
2022/09/06 06:12:08;;;;;;;10.55;9.60;;;17.20;99.90;;;;;;5008738;28;20048;-72
2022/09/06 06:14:34;;;;;;;10.65;9.73;;;17.30;99.90;;;;;;5006667;28;20042;-72
2022/09/06 06:17:01;;;;;;;11.30;10.20;;;17.30;99.90;;;;;;5025669;28;20079;-72
2022/09/06 06:19:27;;;;;;;12.57;10.75;;;17.40;99.90;;;;;;5002630;28;20462;-72
2022/09/06 06:21:54;;;;;;;11.65;10.43;;;17.40;99.90;;;;;;5008512;28;20041;-71
2022/09/06 06:24:24;;;;;;;11.50;10.50;;;17.40;99.90;;;;;;5006192;28;20049;-70
2022/09/06 06:26:50;;;;;;;11.90;10.70;;;17.40;99.90;;;;;;5023108;28;20143;-69
2022/09/06 06:29:15;;;;;;;12.48;11.20;;;17.50;99.90;;;;;;5002728;28;20038;-70
2022/09/06 06:31:41;;;;;;;12.25;11.10;;;17.50;99.90;;;;;;5023012;28;20042;-70
2022/09/06 06:34:07;;;;;;;10.93;10.02;;;17.50;99.90;;;;;;5021370;28;20038;-70
2022/09/06 06:36:35;;;;;;;13.10;11.88;;;17.50;99.90;;;;;;5027154;28;20037;-69
2022/09/06 06:39:02;;;;;;;13.10;11.80;;;17.50;99.90;;;;;;5019891;28;20068;-70
2022/09/06 06:41:30;;;;;;;12.68;11.43;;;17.60;99.90;;;;;;5022274;28;20038;-70
2022/09/06 06:43:59;;;;;;;13.88;11.95;;;17.60;99.90;;;;;;5017090;28;20064;-70
2022/09/06 06:46:30;;;;;;;13.90;12.68;;;17.60;99.90;;;;;;5019778;28;20034;-70
2022/09/06 06:48:56;;;;;;;13.65;11.82;;;17.70;99.90;;;;;;5020498;28;20050;-70
2022/09/06 06:51:24;;;;;;;13.88;12.55;;;17.70;99.90;;;;;;5002553;28;20114;-70
2022/09/06 06:53:50;;;;;;;13.60;12.15;;;17.80;99.90;;;;;;4994873;28;20050;-69
2022/09/06 06:56:17;;;;;;;12.77;11.40;;;17.80;99.90;;;;;;5005317;28;20069;-70
2022/09/06 06:58:43;;;;;;;12.90;11.68;;;17.90;99.90;;;;;;5016886;28;20064;-69
2022/09/06 07:01:09;;;;;;;13.07;11.75;;;17.90;99.90;;;;;;5006118;28;20037;-69
2022/09/06 07:03:35;;;;;;;13.13;11.82;;;18.00;99.90;;;;;;5019223;28;20180;-70
2022/09/06 07:06:05;;;;;;;13.05;11.85;;;18.10;99.90;;;;;;5002542;28;20549;-69
2022/09/06 07:08:32;;;;;;;13.15;11.93;;;18.20;99.90;;;;;;5015120;28;20351;-69
2022/09/06 07:10:57;;;;;;;12.93;11.65;;;18.30;99.90;;;;;;5021015;28;20096;-69
2022/09/06 07:13:23;;;;;;;12.57;11.32;;;18.40;99.90;;;;;;4995523;28;20561;-69
2022/09/06 07:15:49;;;;;;;12.52;11.43;;;18.50;99.90;;;;;;5021106;28;20038;-70
2022/09/06 07:18:15;;;;;;;12.57;11.38;;;18.70;99.90;;;;;;5016879;28;20040;-69
2022/09/06 07:20:41;;;;;;;11.95;10.95;;;18.80;99.90;;;;;;5001518;28;20041;-69
2022/09/06 07:23:07;;;;;;;12.63;11.60;;;18.90;99.90;;;;;;5021402;28;20046;-69
2022/09/06 07:25:33;;;;;;;13.10;11.57;;;19.00;99.90;;;;;;5023461;28;20073;-69
2022/09/06 07:28:05;;;;;;;12.23;10.95;;;19.10;99.90;;;;;;5025146;28;20464;-68
2022/09/06 07:30:32;;;;;;;14.25;11.32;;;19.20;99.90;;;;;;5008635;28;20386;-69
2022/09/06 07:32:59;;;;;;;11.85;10.75;;;19.40;99.90;;;;;;5023748;28;20172;-68
2022/09/06 07:35:25;;;;;;;12.10;11.00;;;19.60;99.90;;;;;;5026034;28;20034;-68
2022/09/06 07:37:53;;;;;;;11.27;10.32;;;19.90;99.90;;;;;;5020296;28;20041;-68
2022/09/06 07:40:19;;;;;;;11.13;10.13;;;20.10;99.90;;;;;;5018784;28;20160;-68
2022/09/06 07:42:44;;;;;;;11.40;10.23;;;20.30;99.90;;;;;;5024946;28;20461;-67
2022/09/06 07:45:10;;;;;;;11.20;10.02;;;20.50;99.90;;;;;;5003289;28;20041;-68
2022/09/06 07:47:36;;;;;;;12.63;10.10;;;20.80;99.90;;;;;;5027772;28;20041;-67
2022/09/06 07:50:03;;;;;;;10.73;9.65;;;21.00;99.90;;;;;;5029886;28;20116;-67
2022/09/06 07:52:28;;;;;;;11.23;10.15;;;21.30;99.90;;;;;;5007254;28;20335;-68
2022/09/06 07:54:55;;;;;;;10.23;9.20;;;21.60;99.90;;;;;;5003946;28;20108;-67
2022/09/06 07:57:22;;;;;;;10.73;9.63;;;21.80;99.90;;;;;;5022646;28;20085;-68
2022/09/06 07:59:48;;;;;;;10.18;9.35;;;22.20;99.90;;;;;;5020299;28;20125;-68
2022/09/06 08:02:15;;;;;;;11.13;10.02;;;22.70;99.90;;;;;;5027706;28;20282;-69
2022/09/06 08:04:41;;;;;;;9.82;8.88;;;23.30;99.90;;;;;;5027113;28;20104;-68
2022/09/06 08:07:07;;;;;;;9.18;8.32;;;24.20;99.90;;;;;;5014887;28;20046;-68
2022/09/06 08:09:33;;;;;;;9.88;8.93;;;25.00;99.90;;;;;;5026995;28;20108;-69
2022/09/06 08:12:00;;;;;;;9.05;8.25;;;25.70;99.90;;;;;;5027098;28;20120;-69
2022/09/06 08:14:25;;;;;;;9.05;7.85;;;26.40;99.10;;;;;;5016443;28;20049;-69
2022/09/06 08:16:51;;;;;;;10.55;8.25;;;27.10;97.50;;;;;;5039511;28;20037;-69
2022/09/06 08:19:17;;;;;;;7.63;7.03;;;27.80;95.80;;;;;;5036545;28;20034;-69
2022/09/06 08:21:42;;;;;;;6.85;6.25;;;28.30;92.60;;;;;;5038019;28;20046;-69
2022/09/06 08:24:09;;;;;;;7.32;6.60;;;28.40;90.40;;;;;;5039995;28;20045;-69
2022/09/06 08:26:41;;;;;;;8.88;6.88;;;28.50;90.70;;;;;;5035487;28;20052;-69
2022/09/06 08:29:07;;;;;;;9.60;7.10;;;28.70;89.00;;;;;;5017355;28;20432;-70
2022/09/06 08:31:35;;;;;;;6.88;6.25;;;29.00;85.70;;;;;;5034346;28;20050;-69
2022/09/06 08:34:01;;;;;;;9.02;6.50;;;29.00;83.00;;;;;;5031302;28;20108;-70
2022/09/06 08:36:31;;;;;;;6.75;6.25;;;28.30;82.20;;;;;;5033562;28;20092;-70
2022/09/06 08:38:58;;;;;;;7.03;6.43;;;27.80;82.80;;;;;;5029810;28;20068;-71
2022/09/06 08:41:59;;;;;;;8.10;6.97;;;27.80;84.40;;;;;;5033571;28;20029;-70
2022/09/06 08:44:31;;;;;;;7.78;7.00;;;27.70;79.80;;;;;;5027496;28;20038;-71
2022/09/06 08:47:06;;;;;;;7.43;6.50;;;27.60;82.70;;;;;;5030630;28;20030;-71
2022/09/06 08:49:46;;;;;;;8.55;7.38;;;28.10;83.30;;;;;;5000152;28;20092;-71
2022/09/06 08:52:24;;;;;;;7.95;7.35;;;28.80;81.40;;;;;;5028508;28;20041;-71
2022/09/06 08:54:57;;;;;;;7.63;6.70;;;29.30;78.50;;;;;;5017506;28;20121;-73
2022/09/06 08:58:17;;;;;;;5.85;5.38;;;29.60;78.00;;;;;;5012953;28;20037;-73
2022/09/06 09:01:24;;;;;;;6.78;5.03;;;30.00;74.90;;;;;;4933412;29;20043;-72
2022/09/06 09:03:52;;;;;;;4.72;4.22;;;30.50;74.80;;;;;;5020113;28;20126;-73
2022/09/06 09:06:18;;;;;;;5.05;4.40;;;30.70;71.90;;;;;;5002903;28;20564;-72
2022/09/06 09:09:06;;;;;;;7.07;4.72;;;31.10;71.40;;;;;;5005377;28;20076;-73
2022/09/06 09:11:34;;;;;;;6.55;4.18;;;31.50;67.40;;;;;;5022129;28;20041;-73
2022/09/06 09:14:12;;;;;;;5.80;3.53;;;31.60;66.80;;;;;;5003203;28;20049;-74
2022/09/06 09:16:38;;;;;;;4.20;3.88;;;31.90;65.00;;;;;;5016570;28;20033;-73
2022/09/06 09:19:04;;;;;;;4.55;3.20;;;31.80;64.50;;;;;;5008894;28;20045;-72
2022/09/06 09:21:33;;;;;;;4.72;3.28;;;32.00;64.10;;;;;;5005284;28;20048;-73
2022/09/06 09:24:07;;;;;;;5.43;3.38;;;32.00;62.00;;;;;;5003139;28;20112;-73
2022/09/06 09:26:50;;;;;;;4.20;3.80;;;32.00;60.80;;;;;;5003176;28;20041;-73
2022/09/06 09:29:16;;;;;;;7.53;4.15;;;31.90;60.40;;;;;;5020351;28;20116;-74
2022/09/06 09:32:02;;;;;;;5.22;3.45;;;31.90;61.20;;;;;;5004786;28;20049;-74
2022/09/06 09:34:33;;;;;;;5.75;3.03;;;31.80;60.00;;;;;;5004314;28;20057;-73
2022/09/06 09:37:18;;;;;;;3.03;2.60;;;31.80;59.20;;;;;;5002689;28;20391;-74
2022/09/06 09:39:45;;;;;;;5.15;2.65;;;31.90;58.00;;;;;;4997215;28;20509;-74
2022/09/06 09:42:23;;;;;;;4.13;2.63;;;32.00;59.30;;;;;;5006388;28;20046;-74
2022/09/06 09:44:49;;;;;;;6.03;2.72;;;32.30;59.20;;;;;;5001763;28;20394;-74
2022/09/06 09:47:27;;;;;;;5.40;2.95;;;32.50;57.40;;;;;;5024119;28;20029;-74
2022/09/06 09:49:53;;;;;;;4.25;2.60;;;32.50;57.40;;;;;;5002195;28;20051;-74
2022/09/06 09:52:30;;;;;;;5.15;2.70;;;32.40;56.80;;;;;;5006255;28;20045;-74
2022/09/06 09:55:04;;;;;;;4.20;2.83;;;32.30;57.80;;;;;;4985843;28;20513;-74
2022/09/06 09:57:43;;;;;;;4.47;2.60;;;32.40;57.20;;;;;;5021756;28;20081;-75
2022/09/06 10:00:12;;;;;;;2.72;2.10;;;32.50;57.40;;;;;;5009450;28;20056;-74
2022/09/06 10:02:39;;;;;;;5.13;2.25;;;32.70;57.80;;;;;;4998459;28;20068;-75
2022/09/06 10:05:08;;;;;;;3.28;2.60;;;33.00;56.30;;;;;;5002040;28;20038;-74
2022/09/06 10:07:51;;;;;;;4.18;2.72;;;33.10;54.60;;;;;;5022336;28;20056;-75
2022/09/06 10:10:22;;;;;;;2.97;2.10;;;33.30;54.50;;;;;;5003746;28;20129;-75
2022/09/06 10:13:04;;;;;;;3.38;2.75;;;33.30;54.80;;;;;;4989459;28;20060;-75
2022/09/06 10:15:39;;;;;;;4.78;2.80;;;33.40;53.40;;;;;;5022811;28;20066;-74
2022/09/06 10:18:04;;;;;;;8.02;2.90;;;33.10;54.30;;;;;;5004387;28;20175;-75
2022/09/06 10:20:50;;;;;;;3.42;2.22;;;32.80;53.00;;;;;;5022221;28;20128;-75
2022/09/06 10:23:48;;;;;;;3.80;3.35;;;32.60;54.20;;;;;;5009261;28;20072;-73
2022/09/06 10:26:31;;;;;;;6.50;3.60;;;32.40;55.40;;;;;;4998756;28;20506;-73
2022/09/06 10:29:10;;;;;;;3.67;3.33;;;32.50;55.60;;;;;;5009745;28;20040;-72
2022/09/06 10:32:04;;;;;;;5.30;3.30;;;32.60;53.70;;;;;;5014789;28;20038;-75
2022/09/06 10:34:53;;;;;;;3.58;3.15;;;32.40;53.90;;;;;;4992743;28;20041;-75
2022/09/06 10:37:40;;;;;;;4.72;3.40;;;32.00;55.30;;;;;;5022055;28;20048;-75
2022/09/06 10:40:08;;;;;;;3.75;3.35;;;32.20;55.90;;;;;;5021917;28;20084;-74
2022/09/06 10:42:44;;;;;;;4.15;3.75;;;32.20;56.70;;;;;;5001248;28;20125;-73
2022/09/06 10:45:38;;;;;;;7.45;3.65;;;32.20;55.00;;;;;;5024306;28;20038;-74
2022/09/06 10:48:08;;;;;;;5.85;3.60;;;32.00;54.90;;;;;;4974783;28;20050;-74
2022/09/06 10:50:47;;;;;;;3.92;3.60;;;31.70;55.80;;;;;;5001530;28;20048;-74
2022/09/06 10:53:15;;;;;;;3.67;2.85;;;31.90;55.10;;;;;;4998640;28;20061;-74
2022/09/06 10:55:45;;;;;;;5.57;4.00;;;31.90;56.00;;;;;;4996202;28;20065;-74
2022/09/06 10:58:11;;;;;;;4.93;3.45;;;32.00;55.40;;;;;;5017245;28;20046;-73
2022/09/06 11:00:45;;;;;;;5.60;3.60;;;32.10;55.30;;;;;;5023825;28;20048;-74
2022/09/06 11:03:30;;;;;;;4.70;4.30;;;32.20;55.50;;;;;;5003282;28;20083;-74
2022/09/06 11:06:04;;;;;;;6.63;4.25;;;32.20;55.60;;;;;;5003080;28;20215;-74
2022/09/06 11:08:35;;;;;;;5.13;3.50;;;32.00;56.50;;;;;;4997963;28;20052;-74
2022/09/06 11:11:08;;;;;;;5.32;3.95;;;32.10;56.30;;;;;;5010348;28;20405;-74
2022/09/06 11:13:33;;;;;;;5.88;3.95;;;32.50;55.50;;;;;;5022188;28;20133;-74
2022/09/06 11:16:19;;;;;;;5.05;3.67;;;32.70;55.80;;;;;;5011681;28;20093;-73
2022/09/06 11:18:54;;;;;;;3.70;3.40;;;32.60;54.20;;;;;;5023470;28;20124;-73
2022/09/06 11:21:32;;;;;;;3.88;3.58;;;32.30;53.30;;;;;;5015415;28;20075;-74
2022/09/06 11:24:21;;;;;;;5.50;4.13;;;32.10;55.10;;;;;;5022966;28;20037;-74
2022/09/06 11:27:22;;;;;;;4.95;4.45;;;32.00;55.10;;;;;;5025842;28;20046;-73
2022/09/06 11:29:55;;;;;;;5.03;3.72;;;32.00;55.20;;;;;;5002961;28;20046;-73
2022/09/06 11:32:31;;;;;;;4.95;3.95;;;32.10;55.50;;;;;;5026185;28;20037;-75
2022/09/06 11:35:00;;;;;;;4.78;4.38;;;32.10;55.00;;;;;;5005062;28;20065;-72
2022/09/06 11:37:35;;;;;;;7.50;3.97;;;31.70;54.70;;;;;;5008512;28;20130;-74
2022/09/06 11:40:13;;;;;;;6.88;4.35;;;31.70;55.30;;;;;;5017030;28;20085;-73
2022/09/06 11:42:44;;;;;;;6.50;4.45;;;31.90;55.60;;;;;;5005836;28;20117;-74
2022/09/06 11:45:10;;;;;;;5.40;3.58;;;32.00;55.00;;;;;;5022991;28;20044;-73
2022/09/06 11:47:41;;;;;;;5.80;4.25;;;32.20;54.20;;;;;;5005793;28;20038;-73
2022/09/06 11:50:19;;;;;;;4.65;4.07;;;32.30;54.10;;;;;;5025409;28;20037;-74
2022/09/06 11:52:54;;;;;;;4.13;3.33;;;32.10;53.40;;;;;;5025317;28;20099;-73
2022/09/06 11:55:44;;;;;;;4.13;3.75;;;32.10;54.40;;;;;;5022589;28;20037;-73
2022/09/06 11:58:16;;;;;;;3.08;2.72;;;32.20;54.50;;;;;;5015818;28;20152;-74
2022/09/06 12:00:43;;;;;;;3.63;2.53;;;32.40;52.70;;;;;;5002209;28;20058;-73
2022/09/06 12:03:47;;;;;;;4.82;3.50;;;32.50;53.40;;;;;;5017318;28;20041;-73
2022/09/06 12:06:25;;;;;;;4.03;3.20;;;32.70;52.90;;;;;;5018314;28;20421;-74
2022/09/06 12:08:53;;;;;;;6.47;3.05;;;32.70;52.30;;;;;;5025756;28;20044;-77
2022/09/06 12:11:42;;;;;;;4.68;3.30;;;32.60;53.10;;;;;;5002196;28;20052;-75
2022/09/06 12:14:41;;;;;;;3.20;2.08;;;32.80;51.80;;;;;;5010872;28;20041;-74
2022/09/06 12:17:07;;;;;;;3.13;2.05;;;33.00;51.80;;;;;;5028220;28;20037;-73
2022/09/06 12:20:06;;;;;;;4.72;2.55;;;33.00;51.40;;;;;;5004137;28;20064;-73
2022/09/06 12:22:32;;;;;;;3.05;1.92;;;33.30;50.40;;;;;;5017202;28;20061;-74
2022/09/06 12:25:19;;;;;;;3.92;1.95;;;33.30;51.50;;;;;;5016801;28;20034;-74
2022/09/06 12:27:57;;;;;;;4.72;2.70;;;33.80;51.40;;;;;;5012999;28;20439;-77
2022/09/06 12:30:43;;;;;;;3.20;2.50;;;33.80;49.80;;;;;;5000787;28;20060;-77
2022/09/06 12:33:21;;;;;;;4.15;2.60;;;33.40;50.60;;;;;;5003669;28;20046;-77
2022/09/06 12:35:47;;;;;;;4.90;2.00;;;33.30;49.90;;;;;;5003533;28;20042;-75
2022/09/06 12:38:14;;;;;;;3.33;1.90;;;33.60;50.90;;;;;;5009697;28;20071;-74
2022/09/06 12:40:46;;;;;;;3.13;1.90;;;33.90;49.40;;;;;;5011005;28;20054;-75
2022/09/06 12:43:14;;;;;;;3.08;1.50;;;33.80;49.20;;;;;;5007445;28;20033;-74
2022/09/06 12:45:52;;;;;;;4.15;1.75;;;33.40;50.20;;;;;;5012334;28;20481;-74
2022/09/06 12:48:37;;;;;;;3.00;1.77;;;32.90;49.90;;;;;;5008570;28;20132;-73
2022/09/06 12:51:15;;;;;;;1.50;1.00;;;32.60;50.30;;;;;;5008383;28;20140;-71
2022/09/06 12:53:52;;;;;;;2.70;1.30;;;32.70;51.20;;;;;;5026757;28;20041;-75
2022/09/06 12:56:26;;;;;;;2.00;1.20;;;32.60;50.10;;;;;;4996824;28;20052;-71
2022/09/06 12:58:52;;;;;;;3.00;1.20;;;32.80;50.70;;;;;;5026044;28;20048;-72
2022/09/06 13:01:29;;;;;;;3.17;1.60;;;32.80;51.00;;;;;;5027501;28;20034;-72
2022/09/06 13:04:08;;;;;;;2.13;1.30;;;32.90;50.00;;;;;;5007899;28;20302;-72